Time;durP1;ratioP1;P1;durP2;ratioP2;P2;SDS_P1;SDS_P2;PMS_P1;PMS_P2;Temp;Humidity;BMP_temperature;BMP_pressure;BME280_temperature;BME280_humidity;BME280_pressure;Samples;Min_cycle;Max_cycle;Signal;HPM_P1;HPM_P2
2021/07/25 00:00:32;;;;;;;14.30;9.93;;;23.00;92.30;;;;;;4115759;28;20236;-76
2021/07/25 00:02:35;;;;;;;14.07;10.00;;;23.00;92.60;;;;;;4115959;28;20270;-76
2021/07/25 00:04:36;;;;;;;14.30;9.87;;;23.00;92.30;;;;;;4116230;28;20206;-76
2021/07/25 00:06:38;;;;;;;12.90;9.60;;;23.00;92.80;;;;;;4114103;28;20662;-76
2021/07/25 00:08:40;;;;;;;16.17;10.37;;;22.90;93.10;;;;;;4115959;28;20220;-76
2021/07/25 00:10:43;;;;;;;14.53;10.03;;;22.90;93.00;;;;;;4118283;28;20248;-75
2021/07/25 00:12:45;;;;;;;15.90;10.50;;;22.90;93.10;;;;;;4116104;28;20591;-75
2021/07/25 00:14:46;;;;;;;15.63;10.27;;;22.80;92.50;;;;;;4115042;28;20248;-75
2021/07/25 00:16:49;;;;;;;18.97;10.43;;;22.80;92.80;;;;;;4114884;28;20720;-76
2021/07/25 00:18:51;;;;;;;14.73;9.90;;;22.80;93.00;;;;;;4115277;28;20270;-76
2021/07/25 00:20:53;;;;;;;14.27;10.50;;;22.80;92.70;;;;;;4115841;28;20289;-75
2021/07/25 00:22:54;;;;;;;15.60;10.63;;;22.70;92.70;;;;;;4116759;28;20205;-76
2021/07/25 00:25:07;;;;;;;14.33;10.40;;;22.70;93.20;;;;;;4113351;28;20210;-76
2021/07/25 00:27:09;;;;;;;16.20;10.40;;;22.70;93.40;;;;;;4115212;28;20217;-76
2021/07/25 00:29:11;;;;;;;16.07;10.90;;;22.60;94.00;;;;;;4115634;28;20215;-75
2021/07/25 00:31:12;;;;;;;17.33;10.90;;;22.60;94.30;;;;;;4115783;28;20252;-75
2021/07/25 00:33:16;;;;;;;14.27;10.23;;;22.50;94.70;;;;;;4113571;28;20349;-76
2021/07/25 00:35:18;;;;;;;16.83;10.60;;;22.40;95.00;;;;;;4115748;28;20215;-76
2021/07/25 00:37:20;;;;;;;16.80;10.63;;;22.40;95.40;;;;;;4114408;28;20210;-75
2021/07/25 00:39:22;;;;;;;15.43;11.03;;;22.30;95.60;;;;;;4115648;28;20209;-75
2021/07/25 00:41:24;;;;;;;15.63;11.20;;;22.30;95.70;;;;;;4111810;28;20280;-75
2021/07/25 00:43:27;;;;;;;14.80;10.57;;;22.20;95.90;;;;;;4115770;28;20209;-76
2021/07/25 00:45:29;;;;;;;17.57;10.87;;;22.20;96.10;;;;;;4120733;28;20580;-75
2021/07/25 00:47:31;;;;;;;15.10;11.10;;;22.20;96.50;;;;;;4116048;28;20209;-75
2021/07/25 00:49:37;;;;;;;14.63;11.00;;;22.20;96.90;;;;;;4115047;28;20229;-75
2021/07/25 00:51:39;;;;;;;18.47;11.63;;;22.10;97.00;;;;;;4116192;28;20213;-76
2021/07/25 00:53:43;;;;;;;16.20;11.63;;;22.10;97.20;;;;;;4114733;28;20213;-75
2021/07/25 00:55:46;;;;;;;15.53;10.70;;;22.10;97.20;;;;;;4115233;28;20208;-75
2021/07/25 00:57:48;;;;;;;17.07;11.33;;;22.10;97.10;;;;;;4114611;28;20221;-76
2021/07/25 00:59:50;;;;;;;14.63;10.93;;;22.10;97.30;;;;;;4115320;28;20276;-76
2021/07/25 01:01:52;;;;;;;16.43;10.87;;;22.10;97.50;;;;;;4115819;28;20674;-75
2021/07/25 01:04:05;;;;;;;15.03;11.27;;;22.00;97.70;;;;;;4116086;28;20295;-75
2021/07/25 01:06:18;;;;;;;15.27;11.13;;;22.00;97.40;;;;;;4117692;28;20205;-76
2021/07/25 01:08:25;;;;;;;16.80;10.63;;;22.00;97.10;;;;;;4123823;28;20216;-75
2021/07/25 01:10:31;;;;;;;14.20;10.67;;;22.10;97.30;;;;;;4130311;28;20244;-75
2021/07/25 01:12:38;;;;;;;13.97;10.03;;;22.10;97.70;;;;;;4129921;28;20213;-75
2021/07/25 01:14:40;;;;;;;15.17;10.67;;;22.00;97.50;;;;;;4129490;28;20270;-75
2021/07/25 01:16:41;;;;;;;15.87;11.23;;;22.00;97.60;;;;;;4114818;28;20232;-76
2021/07/25 01:18:47;;;;;;;13.70;10.27;;;22.00;97.80;;;;;;4114384;28;20276;-75
2021/07/25 01:20:51;;;;;;;16.40;10.43;;;22.00;98.00;;;;;;4115028;28;20334;-76
2021/07/25 01:22:55;;;;;;;15.80;11.07;;;22.00;97.90;;;;;;4120435;28;20274;-76
2021/07/25 01:24:57;;;;;;;16.03;10.90;;;22.00;97.80;;;;;;4115663;28;20556;-76
2021/07/25 01:27:00;;;;;;;16.50;11.33;;;22.00;98.50;;;;;;4114689;28;20640;-75
2021/07/25 01:29:04;;;;;;;16.50;11.17;;;22.00;98.40;;;;;;4121313;28;20232;-75
2021/07/25 01:31:11;;;;;;;17.93;12.20;;;21.90;98.60;;;;;;4117288;28;20213;-75
2021/07/25 01:33:16;;;;;;;17.50;11.50;;;21.90;98.60;;;;;;4115073;28;20654;-75
2021/07/25 01:35:17;;;;;;;16.97;11.87;;;21.90;98.60;;;;;;4115674;28;20217;-75
2021/07/25 01:37:21;;;;;;;15.37;10.60;;;21.90;98.60;;;;;;4114486;28;20575;-76
2021/07/25 01:39:26;;;;;;;15.53;11.23;;;21.90;98.60;;;;;;4114764;28;20303;-75
2021/07/25 01:41:28;;;;;;;17.37;10.90;;;21.90;98.60;;;;;;4113669;28;20261;-76
2021/07/25 01:43:31;;;;;;;16.13;10.93;;;21.90;98.70;;;;;;4126978;28;20212;-75
2021/07/25 01:45:32;;;;;;;14.90;10.97;;;21.90;98.60;;;;;;4130841;28;20701;-75
2021/07/25 01:47:35;;;;;;;16.37;11.60;;;21.90;98.80;;;;;;4123936;28;20582;-75
2021/07/25 01:49:36;;;;;;;15.50;10.73;;;21.90;99.00;;;;;;4114216;28;20324;-76
2021/07/25 01:51:38;;;;;;;15.03;10.57;;;21.90;99.10;;;;;;4113880;28;20209;-75
2021/07/25 01:53:41;;;;;;;14.77;10.30;;;21.90;99.10;;;;;;4114637;28;20217;-75
2021/07/25 01:55:43;;;;;;;13.93;9.90;;;21.90;98.80;;;;;;4114331;28;20553;-75
2021/07/25 01:57:45;;;;;;;14.30;10.13;;;21.80;98.70;;;;;;4114589;28;20217;-76
2021/07/25 01:59:46;;;;;;;15.50;10.50;;;21.80;98.80;;;;;;4109010;28;20321;-75
2021/07/25 02:01:48;;;;;;;14.33;10.03;;;21.80;98.80;;;;;;4098105;29;20233;-75
2021/07/25 02:03:50;;;;;;;13.97;9.77;;;21.80;98.90;;;;;;4116097;28;20217;-75
2021/07/25 02:05:52;;;;;;;14.20;9.97;;;21.80;98.70;;;;;;4115252;28;20610;-76
2021/07/25 02:07:53;;;;;;;15.40;10.80;;;21.80;98.70;;;;;;4114782;28;20210;-75
2021/07/25 02:09:56;;;;;;;14.23;10.00;;;21.80;98.50;;;;;;4108924;28;20237;-76
2021/07/25 02:11:58;;;;;;;14.57;9.50;;;21.80;98.50;;;;;;4114551;28;20271;-75
2021/07/25 02:14:00;;;;;;;12.60;9.97;;;21.80;98.30;;;;;;4114982;28;20216;-75
2021/07/25 02:16:02;;;;;;;15.00;10.60;;;21.80;98.30;;;;;;4111502;28;20690;-75
2021/07/25 02:18:03;;;;;;;13.60;10.20;;;21.80;98.20;;;;;;4105372;28;20229;-76
2021/07/25 02:20:06;;;;;;;13.53;10.13;;;21.80;98.40;;;;;;4113937;28;20268;-76
2021/07/25 02:22:08;;;;;;;16.77;10.43;;;21.70;98.60;;;;;;4114588;28;20655;-76
2021/07/25 02:24:10;;;;;;;15.73;10.90;;;21.70;98.50;;;;;;4115059;28;20263;-75
2021/07/25 02:26:13;;;;;;;15.73;11.07;;;21.70;98.60;;;;;;4122202;28;20411;-75
2021/07/25 02:28:14;;;;;;;14.27;10.53;;;21.60;98.60;;;;;;4116575;28;20679;-75
2021/07/25 02:30:16;;;;;;;14.70;10.77;;;21.60;98.90;;;;;;4114242;28;20653;-75
2021/07/25 02:32:18;;;;;;;16.53;11.33;;;21.60;98.90;;;;;;4114789;28;20281;-75
2021/07/25 02:34:19;;;;;;;17.40;11.80;;;21.50;99.30;;;;;;4114772;28;20213;-75
2021/07/25 02:36:21;;;;;;;14.93;11.23;;;21.50;99.70;;;;;;4114563;28;20284;-75
2021/07/25 02:38:23;;;;;;;16.20;10.93;;;21.40;99.90;;;;;;4114120;28;20210;-76
2021/07/25 02:40:25;;;;;;;16.07;10.80;;;21.30;99.60;;;;;;4116791;28;20238;-76
2021/07/25 02:42:28;;;;;;;18.37;11.13;;;21.30;99.70;;;;;;4116478;28;20237;-76
2021/07/25 02:44:30;;;;;;;15.03;10.67;;;21.30;99.90;;;;;;4123139;28;20208;-76
2021/07/25 02:46:32;;;;;;;15.10;11.13;;;21.30;99.90;;;;;;4124789;28;20219;-75
2021/07/25 02:48:33;;;;;;;16.47;11.37;;;21.20;99.90;;;;;;4116712;28;20950;-76
2021/07/25 02:50:35;;;;;;;17.30;11.77;;;21.20;99.90;;;;;;4117359;28;20710;-75
2021/07/25 02:52:37;;;;;;;18.37;11.33;;;21.10;99.90;;;;;;4125362;28;20209;-76
2021/07/25 02:54:38;;;;;;;15.57;10.80;;;21.10;99.90;;;;;;4128716;28;20223;-75
2021/07/25 02:56:40;;;;;;;14.63;10.17;;;21.10;99.90;;;;;;4119754;28;20217;-75
2021/07/25 02:58:43;;;;;;;13.60;10.17;;;21.10;99.90;;;;;;4116251;28;20251;-75
2021/07/25 03:00:45;;;;;;;14.90;10.70;;;21.00;99.80;;;;;;4117116;28;20609;-75
2021/07/25 03:02:47;;;;;;;17.33;11.00;;;21.00;99.80;;;;;;4117240;28;20238;-76
2021/07/25 03:04:48;;;;;;;15.97;10.57;;;21.00;99.90;;;;;;4124992;28;20344;-75
2021/07/25 03:06:50;;;;;;;14.03;9.97;;;20.90;99.90;;;;;;4117688;28;20578;-75
2021/07/25 03:08:52;;;;;;;16.13;10.70;;;20.90;99.90;;;;;;4115698;28;20224;-75
2021/07/25 03:10:53;;;;;;;17.07;10.63;;;20.90;99.90;;;;;;4107449;28;20239;-76
2021/07/25 03:12:55;;;;;;;14.57;10.83;;;20.80;99.90;;;;;;4116685;28;20212;-75
2021/07/25 03:14:58;;;;;;;16.57;10.67;;;20.80;99.90;;;;;;4126436;28;20286;-75
2021/07/25 03:17:00;;;;;;;13.73;10.47;;;20.80;99.90;;;;;;4133544;28;20743;-76
2021/07/25 03:19:01;;;;;;;16.47;11.27;;;20.70;99.90;;;;;;4119925;28;20215;-75
2021/07/25 03:21:04;;;;;;;16.30;11.67;;;20.70;99.90;;;;;;4154578;23;20299;-78
2021/07/25 03:23:05;;;;;;;18.23;11.83;;;20.70;99.90;;;;;;4134786;28;20604;-75
2021/07/25 03:25:08;;;;;;;16.40;10.97;;;20.70;99.90;;;;;;4138515;28;20589;-78
2021/07/25 03:27:10;;;;;;;15.27;10.47;;;20.60;99.90;;;;;;4132763;28;20218;-75
2021/07/25 03:29:12;;;;;;;16.53;10.93;;;20.50;99.90;;;;;;4131192;28;20213;-78
2021/07/25 03:31:15;;;;;;;15.23;10.73;;;20.60;99.90;;;;;;4132046;28;20313;-76
2021/07/25 03:33:16;;;;;;;16.83;11.17;;;20.50;99.90;;;;;;4132247;28;20209;-75
2021/07/25 03:35:18;;;;;;;17.57;11.37;;;20.50;99.90;;;;;;4128411;28;20211;-76
2021/07/25 03:37:20;;;;;;;17.23;11.27;;;20.50;99.90;;;;;;4129383;28;20216;-76
2021/07/25 03:39:24;;;;;;;15.23;11.30;;;20.50;99.90;;;;;;4116068;28;20220;-77
2021/07/25 03:41:26;;;;;;;17.03;11.37;;;20.50;99.90;;;;;;4132416;28;20225;-76
2021/07/25 03:43:28;;;;;;;17.03;11.70;;;20.50;99.90;;;;;;4132316;28;20228;-77
2021/07/25 03:45:29;;;;;;;18.20;11.37;;;20.50;99.90;;;;;;4132182;28;20270;-76
2021/07/25 03:47:33;;;;;;;17.20;11.53;;;20.50;99.90;;;;;;4123378;28;20214;-76
2021/07/25 03:49:35;;;;;;;14.37;10.90;;;20.50;99.90;;;;;;4130354;28;20214;-75
2021/07/25 03:51:37;;;;;;;15.97;11.20;;;20.50;99.90;;;;;;4131608;28;20212;-76
2021/07/25 03:53:39;;;;;;;18.17;11.77;;;20.50;99.90;;;;;;4131828;28;20624;-76
2021/07/25 03:55:44;;;;;;;15.67;11.10;;;20.40;99.90;;;;;;4121880;28;20258;-75
2021/07/25 03:57:46;;;;;;;15.67;10.90;;;20.50;99.90;;;;;;4116553;28;20240;-75
2021/07/25 03:59:48;;;;;;;16.40;10.83;;;20.40;99.90;;;;;;4115463;28;20236;-75
2021/07/25 04:01:49;;;;;;;14.93;10.50;;;20.50;99.90;;;;;;4130898;28;20209;-75
2021/07/25 04:03:52;;;;;;;14.33;10.70;;;20.50;99.90;;;;;;4129620;28;20228;-76
2021/07/25 04:05:54;;;;;;;17.03;11.23;;;20.50;99.90;;;;;;4116765;28;20241;-78
2021/07/25 04:07:56;;;;;;;17.47;11.30;;;20.50;99.90;;;;;;4116657;28;20643;-76
2021/07/25 04:09:57;;;;;;;18.40;11.33;;;20.50;99.90;;;;;;4115931;28;20263;-75
2021/07/25 04:11:59;;;;;;;17.43;12.07;;;20.50;99.90;;;;;;4130801;28;20209;-75
2021/07/25 04:14:01;;;;;;;17.30;10.97;;;20.50;99.90;;;;;;4135676;28;20204;-76
2021/07/25 04:16:02;;;;;;;18.50;11.10;;;20.60;99.90;;;;;;4122779;28;20213;-77
2021/07/25 04:18:04;;;;;;;17.03;11.30;;;20.50;99.90;;;;;;4124663;28;20211;-75
2021/07/25 04:20:09;;;;;;;16.97;11.30;;;20.50;99.90;;;;;;4125068;28;20264;-75
2021/07/25 04:22:11;;;;;;;15.40;10.73;;;20.60;99.90;;;;;;4130452;28;20255;-78
2021/07/25 04:24:12;;;;;;;18.07;11.43;;;20.60;99.90;;;;;;4130259;28;20291;-75
2021/07/25 04:26:14;;;;;;;18.50;10.93;;;20.60;99.90;;;;;;4115451;28;20219;-79
2021/07/25 04:28:17;;;;;;;18.77;11.13;;;20.60;99.90;;;;;;4135830;28;20689;-76
2021/07/25 04:30:20;;;;;;;15.00;10.83;;;20.70;99.90;;;;;;4143289;28;20778;-76
2021/07/25 04:32:22;;;;;;;16.70;11.67;;;20.70;99.90;;;;;;4134416;28;20621;-76
2021/07/25 04:34:25;;;;;;;16.53;10.87;;;20.60;99.90;;;;;;4128584;28;20215;-76
2021/07/25 04:36:29;;;;;;;16.37;11.23;;;20.60;99.90;;;;;;4131693;28;20689;-76
2021/07/25 04:38:31;;;;;;;15.07;11.13;;;20.60;99.90;;;;;;4132191;28;20217;-76
2021/07/25 04:40:34;;;;;;;17.63;10.50;;;20.60;99.90;;;;;;4133438;28;20229;-78
2021/07/25 04:42:37;;;;;;;17.73;11.30;;;20.60;99.90;;;;;;4135192;28;20228;-76
2021/07/25 04:44:45;;;;;;;17.17;11.57;;;20.70;99.90;;;;;;4131181;28;20215;-76
2021/07/25 04:46:48;;;;;;;20.97;11.50;;;20.70;99.90;;;;;;4130765;28;20676;-76
2021/07/25 04:48:59;;;;;;;16.90;11.40;;;20.70;99.90;;;;;;4132007;28;20208;-77
2021/07/25 04:51:06;;;;;;;15.77;10.90;;;20.70;99.90;;;;;;4119182;28;20239;-76
2021/07/25 04:53:19;;;;;;;16.20;10.87;;;20.60;99.90;;;;;;4131349;28;20195;-77
2021/07/25 04:55:23;;;;;;;16.03;10.90;;;20.60;99.90;;;;;;4122943;28;20220;-76
2021/07/25 04:57:27;;;;;;;19.10;10.87;;;20.60;99.90;;;;;;4124823;28;20254;-75
2021/07/25 04:59:31;;;;;;;16.77;11.40;;;20.60;99.90;;;;;;4123088;28;20217;-76
2021/07/25 05:01:37;;;;;;;17.17;10.57;;;20.60;99.90;;;;;;4130167;28;20221;-76
2021/07/25 05:03:39;;;;;;;15.07;10.47;;;20.60;99.90;;;;;;4131924;28;20211;-76
2021/07/25 05:05:42;;;;;;;16.10;10.23;;;20.70;99.90;;;;;;4128440;28;20220;-75
2021/07/25 05:07:44;;;;;;;15.60;10.87;;;20.60;99.90;;;;;;4116453;28;20266;-76
2021/07/25 05:09:48;;;;;;;15.80;10.43;;;20.70;99.90;;;;;;4115439;28;20235;-77
2021/07/25 05:11:54;;;;;;;18.00;10.90;;;20.70;99.90;;;;;;4115246;28;20217;-76
2021/07/25 05:14:02;;;;;;;14.43;9.87;;;20.70;99.90;;;;;;4127348;28;20204;-78
2021/07/25 05:16:07;;;;;;;14.53;10.07;;;20.70;99.90;;;;;;4118721;28;20307;-78
2021/07/25 05:18:17;;;;;;;15.33;9.40;;;20.70;99.90;;;;;;4115522;28;20205;-76
2021/07/25 05:20:20;;;;;;;15.87;10.10;;;20.70;99.90;;;;;;4115024;28;20792;-76
2021/07/25 05:22:42;;;;;;;13.73;9.13;;;20.60;99.90;;;;;;4115828;28;20282;-76
2021/07/25 05:24:46;;;;;;;14.63;9.70;;;20.70;99.90;;;;;;4130348;28;20216;-76
2021/07/25 05:26:49;;;;;;;13.27;9.10;;;20.60;99.90;;;;;;4128266;28;20247;-76
2021/07/25 05:28:54;;;;;;;15.53;9.23;;;20.60;99.90;;;;;;4131305;28;20235;-79
2021/07/25 05:30:57;;;;;;;13.37;9.80;;;20.60;99.90;;;;;;4130767;28;20314;-76
2021/07/25 05:32:59;;;;;;;12.03;9.10;;;20.60;99.90;;;;;;4118323;28;20213;-76
2021/07/25 05:35:00;;;;;;;15.20;10.00;;;20.60;99.90;;;;;;4123096;28;20220;-78
2021/07/25 05:37:02;;;;;;;16.77;9.83;;;20.60;99.90;;;;;;4113913;28;20266;-77
2021/07/25 05:39:04;;;;;;;14.37;9.47;;;20.70;99.90;;;;;;4115521;28;20217;-76
2021/07/25 05:41:05;;;;;;;12.77;8.63;;;20.70;99.90;;;;;;4115419;28;20244;-76
2021/07/25 05:43:09;;;;;;;13.13;9.50;;;20.70;99.90;;;;;;4113889;28;20248;-76
2021/07/25 05:45:12;;;;;;;14.87;9.80;;;20.80;99.90;;;;;;4128077;28;20299;-76
2021/07/25 05:47:14;;;;;;;13.93;9.27;;;20.80;99.90;;;;;;4120840;28;20208;-76
2021/07/25 05:49:16;;;;;;;13.37;9.60;;;20.80;99.90;;;;;;4114884;28;20215;-76
2021/07/25 05:51:18;;;;;;;14.20;9.30;;;20.90;99.90;;;;;;4114655;28;20236;-76
2021/07/25 05:53:20;;;;;;;12.60;9.10;;;21.00;99.90;;;;;;4134592;28;20208;-76
2021/07/25 05:55:23;;;;;;;14.93;9.20;;;21.00;99.90;;;;;;4129665;28;20211;-77
2021/07/25 05:57:24;;;;;;;14.47;9.40;;;21.00;99.90;;;;;;4130638;28;20566;-77
2021/07/25 05:59:27;;;;;;;12.23;8.60;;;21.10;99.90;;;;;;4126820;28;20212;-76
2021/07/25 06:01:29;;;;;;;13.63;9.00;;;21.20;99.90;;;;;;4125875;28;20877;-75
2021/07/25 06:03:31;;;;;;;15.00;9.70;;;21.20;99.90;;;;;;4130428;28;20594;-76
2021/07/25 06:05:35;;;;;;;13.87;9.33;;;21.20;99.90;;;;;;4125658;28;20216;-76
2021/07/25 06:07:36;;;;;;;15.47;10.00;;;21.30;99.90;;;;;;4115397;28;20213;-76
2021/07/25 06:09:38;;;;;;;12.17;8.90;;;21.40;99.90;;;;;;4114186;28;20219;-76
2021/07/25 06:11:41;;;;;;;14.77;9.87;;;21.40;99.90;;;;;;4114865;28;20648;-77
2021/07/25 06:13:43;;;;;;;14.53;9.33;;;21.50;99.90;;;;;;4125648;28;20208;-75
2021/07/25 06:15:47;;;;;;;12.67;8.80;;;21.60;99.90;;;;;;4130772;28;20217;-76
2021/07/25 06:17:51;;;;;;;14.27;9.00;;;21.60;99.90;;;;;;4128067;28;20243;-79
2021/07/25 06:19:53;;;;;;;15.00;9.10;;;21.70;99.90;;;;;;4122620;28;20299;-79
2021/07/25 06:21:54;;;;;;;13.83;9.33;;;21.70;99.90;;;;;;4129449;28;20208;-79
2021/07/25 06:23:57;;;;;;;13.33;8.63;;;21.70;99.90;;;;;;4135330;28;20228;-78
2021/07/25 06:25:58;;;;;;;12.80;9.10;;;21.80;99.90;;;;;;4134950;28;20216;-78
2021/07/25 06:28:02;;;;;;;14.53;8.87;;;21.80;99.90;;;;;;4133157;28;20209;-78
2021/07/25 06:30:04;;;;;;;12.83;9.03;;;21.80;99.90;;;;;;4134515;28;20232;-79
2021/07/25 06:32:08;;;;;;;13.60;9.23;;;21.80;99.90;;;;;;4129740;28;20540;-78
2021/07/25 06:34:10;;;;;;;14.33;9.40;;;21.80;99.90;;;;;;4125310;28;20206;-79
2021/07/25 06:36:12;;;;;;;12.07;8.47;;;21.80;99.90;;;;;;4124343;28;20221;-79
2021/07/25 06:38:15;;;;;;;11.93;8.70;;;21.90;99.90;;;;;;4118308;28;20221;-79
2021/07/25 06:40:17;;;;;;;11.70;8.60;;;21.90;99.90;;;;;;4118023;28;20230;-79
2021/07/25 06:42:19;;;;;;;14.53;9.30;;;22.00;99.90;;;;;;4117397;28;20217;-79
2021/07/25 06:44:20;;;;;;;13.27;9.37;;;22.00;99.90;;;;;;4123056;28;20227;-78
2021/07/25 06:46:22;;;;;;;13.00;9.13;;;22.00;99.90;;;;;;4135788;28;20217;-79
2021/07/25 06:48:26;;;;;;;14.27;8.87;;;22.00;99.90;;;;;;4132958;28;20283;-79
2021/07/25 06:50:30;;;;;;;15.60;9.30;;;22.00;99.90;;;;;;4134498;28;20236;-79
2021/07/25 06:52:32;;;;;;;15.70;9.77;;;22.10;99.90;;;;;;4134773;28;20219;-79
2021/07/25 06:54:33;;;;;;;14.83;9.13;;;22.10;99.90;;;;;;4128635;28;20242;-78
2021/07/25 06:56:35;;;;;;;13.77;9.23;;;22.10;99.90;;;;;;4135121;28;20213;-78
2021/07/25 06:58:37;;;;;;;12.57;9.50;;;22.10;99.90;;;;;;4133995;28;20214;-78
2021/07/25 07:00:38;;;;;;;13.87;9.13;;;22.10;99.90;;;;;;4134274;28;20251;-78
2021/07/25 07:02:51;;;;;;;13.90;9.20;;;22.10;99.90;;;;;;4130822;28;20211;-77
2021/07/25 07:04:56;;;;;;;13.20;9.10;;;22.20;99.90;;;;;;4125620;28;20590;-76
2021/07/25 07:07:00;;;;;;;12.33;8.60;;;22.20;99.90;;;;;;4131441;28;20210;-77
2021/07/25 07:09:02;;;;;;;13.13;8.67;;;22.30;99.90;;;;;;4117244;28;20213;-76
2021/07/25 07:11:04;;;;;;;14.17;8.93;;;22.30;99.90;;;;;;4117759;28;20270;-76
2021/07/25 07:13:09;;;;;;;14.93;9.23;;;22.40;99.90;;;;;;4125636;28;20220;-76
2021/07/25 07:15:12;;;;;;;11.93;8.43;;;22.50;99.90;;;;;;4133419;28;20264;-76
2021/07/25 07:17:14;;;;;;;12.57;8.43;;;22.50;99.90;;;;;;4120797;28;20211;-76
2021/07/25 07:19:15;;;;;;;12.63;8.47;;;22.60;99.90;;;;;;4123178;28;20298;-78
2021/07/25 07:21:21;;;;;;;11.47;8.17;;;22.70;99.90;;;;;;4116700;28;20297;-76
2021/07/25 07:23:24;;;;;;;12.17;8.10;;;22.70;99.90;;;;;;4125799;28;20255;-76
2021/07/25 07:25:28;;;;;;;11.23;7.70;;;22.80;99.90;;;;;;4136468;28;20210;-75
2021/07/25 07:27:30;;;;;;;13.13;8.60;;;22.90;99.90;;;;;;4144221;28;20218;-76
2021/07/25 07:29:32;;;;;;;13.20;8.27;;;23.00;99.90;;;;;;4129067;28;20694;-78
2021/07/25 07:31:33;;;;;;;11.93;8.20;;;23.00;99.90;;;;;;4133586;28;20584;-76
2021/07/25 07:33:35;;;;;;;11.33;8.27;;;23.10;99.60;;;;;;4133142;28;20664;-76
2021/07/25 07:35:37;;;;;;;14.20;8.43;;;23.10;99.30;;;;;;4133622;28;20738;-76
2021/07/25 07:37:41;;;;;;;12.57;8.20;;;23.10;99.40;;;;;;4127013;28;20245;-75
2021/07/25 07:39:43;;;;;;;11.57;7.90;;;23.10;99.20;;;;;;4120960;28;20592;-76
2021/07/25 07:41:45;;;;;;;13.13;8.27;;;23.20;99.20;;;;;;4132375;28;20216;-76
2021/07/25 07:43:47;;;;;;;11.50;7.60;;;23.20;99.40;;;;;;4132958;28;20228;-76
2021/07/25 07:45:49;;;;;;;12.60;8.67;;;23.20;99.60;;;;;;4130773;28;20232;-76
2021/07/25 07:47:51;;;;;;;12.47;8.67;;;23.20;99.50;;;;;;4132930;28;20691;-75
2021/07/25 07:49:53;;;;;;;12.33;8.43;;;23.30;99.70;;;;;;4118392;28;20725;-76
2021/07/25 07:51:55;;;;;;;11.40;8.57;;;23.30;99.50;;;;;;4126081;28;20215;-76
2021/07/25 07:54:00;;;;;;;11.77;8.20;;;23.30;99.50;;;;;;4132680;28;20204;-76
2021/07/25 07:56:02;;;;;;;13.13;8.00;;;23.40;99.80;;;;;;4126374;28;20255;-76
2021/07/25 07:58:04;;;;;;;11.33;8.50;;;23.40;99.50;;;;;;4132422;28;20212;-76
2021/07/25 08:00:07;;;;;;;12.33;8.63;;;23.50;99.70;;;;;;4132246;28;20236;-76
2021/07/25 08:02:10;;;;;;;10.83;7.43;;;23.50;99.90;;;;;;4119369;28;20617;-77
2021/07/25 08:04:11;;;;;;;10.87;7.97;;;23.50;99.90;;;;;;4116342;28;20260;-76
2021/07/25 08:06:13;;;;;;;10.70;7.93;;;23.60;99.90;;;;;;4115901;28;20582;-76
2021/07/25 08:08:14;;;;;;;11.93;8.57;;;23.70;99.90;;;;;;4124649;28;20212;-77
2021/07/25 08:10:18;;;;;;;9.43;7.53;;;23.70;99.70;;;;;;4131472;28;20258;-76
2021/07/25 08:12:19;;;;;;;11.30;8.13;;;23.70;99.60;;;;;;4119721;28;20220;-76
2021/07/25 08:14:21;;;;;;;10.47;7.40;;;23.80;99.70;;;;;;4132226;28;20267;-77
2021/07/25 08:16:23;;;;;;;11.30;8.63;;;23.90;99.60;;;;;;4131842;28;20642;-78
2021/07/25 08:18:25;;;;;;;10.77;8.03;;;24.00;99.40;;;;;;4131186;28;20263;-76
2021/07/25 08:20:27;;;;;;;11.53;8.13;;;24.10;98.40;;;;;;4119952;28;20243;-75
2021/07/25 08:22:29;;;;;;;10.70;7.90;;;24.10;97.30;;;;;;4129476;28;20209;-76
2021/07/25 08:24:31;;;;;;;10.83;8.10;;;24.20;96.10;;;;;;4133952;28;20225;-76
2021/07/25 08:26:34;;;;;;;12.13;7.63;;;24.30;95.50;;;;;;4139141;28;20204;-76
2021/07/25 08:28:36;;;;;;;9.67;7.23;;;24.30;95.90;;;;;;4125041;28;20725;-76
2021/07/25 08:30:38;;;;;;;11.03;7.60;;;24.40;95.70;;;;;;4117307;28;20769;-78
2021/07/25 08:32:40;;;;;;;10.13;7.30;;;24.60;95.60;;;;;;4127487;28;20204;-76
2021/07/25 08:34:41;;;;;;;10.00;7.23;;;24.60;95.20;;;;;;4124037;28;20200;-77
2021/07/25 08:36:44;;;;;;;10.07;7.00;;;24.70;95.00;;;;;;4121484;28;20215;-77
2021/07/25 08:38:46;;;;;;;10.17;7.43;;;24.80;94.80;;;;;;4124600;28;20271;-79
2021/07/25 08:41:10;;;;;;;9.20;7.00;;;24.90;95.10;;;;;;4128223;28;20230;-79
2021/07/25 08:43:14;;;;;;;9.53;7.10;;;25.10;94.80;;;;;;4123074;28;20708;-77
2021/07/25 08:45:17;;;;;;;14.43;7.70;;;25.20;94.80;;;;;;4124275;28;20236;-79
2021/07/25 08:47:38;;;;;;;9.87;7.43;;;25.30;94.10;;;;;;4125052;28;20631;-75
2021/07/25 08:49:47;;;;;;;9.37;7.20;;;25.40;93.60;;;;;;4124022;28;20209;-75
2021/07/25 08:51:59;;;;;;;9.77;7.17;;;25.60;93.10;;;;;;4122646;28;20208;-75
2021/07/25 08:54:04;;;;;;;10.83;7.83;;;25.70;92.80;;;;;;4124767;28;20667;-75
2021/07/25 08:56:06;;;;;;;9.30;6.80;;;25.80;92.40;;;;;;4125294;28;20671;-75
2021/07/25 08:58:11;;;;;;;9.77;7.33;;;26.00;92.00;;;;;;4122184;28;20595;-76
2021/07/25 09:00:16;;;;;;;10.53;7.10;;;26.10;91.60;;;;;;4124850;28;20259;-76
2021/07/25 09:02:21;;;;;;;9.30;6.97;;;26.20;91.40;;;;;;4124885;28;20213;-75
2021/07/25 09:04:23;;;;;;;8.83;6.80;;;26.30;91.30;;;;;;4127095;28;20232;-75
2021/07/25 09:06:28;;;;;;;9.13;6.73;;;26.40;89.80;;;;;;4124977;28;20264;-77
2021/07/25 09:08:31;;;;;;;10.30;7.20;;;26.40;89.80;;;;;;4121777;28;20564;-75
2021/07/25 09:10:33;;;;;;;10.90;7.20;;;26.50;90.00;;;;;;4127431;28;20232;-77
2021/07/25 09:12:36;;;;;;;11.50;7.47;;;26.60;90.10;;;;;;4121517;28;20209;-77
2021/07/25 09:14:41;;;;;;;9.90;7.57;;;26.70;88.90;;;;;;4123584;28;20205;-75
2021/07/25 09:16:44;;;;;;;10.40;7.00;;;26.80;87.90;;;;;;4123917;28;20209;-75
2021/07/25 09:18:46;;;;;;;9.03;6.80;;;26.80;86.10;;;;;;4121701;28;20231;-74
2021/07/25 09:20:48;;;;;;;9.67;7.53;;;26.80;80.80;;;;;;4149868;23;20243;-76
2021/07/25 09:23:09;;;;;;;9.13;6.70;;;26.80;82.30;;;;;;4140692;28;20216;-76
2021/07/25 09:25:11;;;;;;;9.53;6.97;;;26.90;84.00;;;;;;4138931;28;20253;-76
2021/07/25 09:27:14;;;;;;;8.70;6.97;;;27.00;81.00;;;;;;4139696;28;20734;-76
2021/07/25 09:29:17;;;;;;;9.97;7.17;;;27.10;82.30;;;;;;4148612;28;20692;-76
2021/07/25 09:31:28;;;;;;;9.23;6.80;;;27.10;80.10;;;;;;4135410;28;20318;-76
2021/07/25 09:33:34;;;;;;;8.30;6.40;;;27.10;80.00;;;;;;4130416;28;20212;-78
2021/07/25 09:35:37;;;;;;;12.07;7.83;;;27.20;79.30;;;;;;4131730;28;20208;-78
2021/07/25 09:37:40;;;;;;;9.23;7.00;;;27.20;79.70;;;;;;4129706;28;20208;-76
2021/07/25 09:39:43;;;;;;;8.40;6.50;;;27.20;80.00;;;;;;4130891;28;20216;-76
2021/07/25 09:41:54;;;;;;;9.53;6.80;;;27.20;81.50;;;;;;4130694;28;20239;-76
2021/07/25 09:44:08;;;;;;;10.77;7.10;;;27.20;80.60;;;;;;4129922;28;20211;-76
2021/07/25 09:46:10;;;;;;;10.93;7.00;;;27.20;82.00;;;;;;4129469;28;20229;-76
2021/07/25 09:48:12;;;;;;;10.80;7.13;;;27.20;81.90;;;;;;4133834;28;20224;-77
2021/07/25 09:50:28;;;;;;;10.37;7.00;;;27.20;78.90;;;;;;4130421;28;20232;-76
2021/07/25 09:52:32;;;;;;;10.37;6.93;;;27.20;79.80;;;;;;4131426;28;20215;-77
2021/07/25 09:54:33;;;;;;;9.07;6.83;;;27.20;79.30;;;;;;4130981;28;20212;-77
2021/07/25 09:56:35;;;;;;;8.30;6.70;;;27.10;78.30;;;;;;4129109;28;20590;-76
2021/07/25 09:58:37;;;;;;;9.13;6.90;;;27.10;77.80;;;;;;4131466;28;20209;-77
2021/07/25 10:00:39;;;;;;;10.87;7.17;;;27.10;80.70;;;;;;4131070;28;20360;-77
2021/07/25 10:02:43;;;;;;;8.70;6.60;;;27.00;79.90;;;;;;4130871;28;20258;-77
2021/07/25 10:04:45;;;;;;;9.73;7.00;;;27.00;76.30;;;;;;4130925;28;20231;-76
2021/07/25 10:06:49;;;;;;;10.00;7.50;;;27.00;77.00;;;;;;4128577;28;20592;-76
2021/07/25 10:09:10;;;;;;;9.20;6.97;;;26.90;74.90;;;;;;4130647;28;20216;-75
2021/07/25 10:11:18;;;;;;;9.17;7.00;;;26.90;80.30;;;;;;4130622;28;20322;-75
2021/07/25 10:13:21;;;;;;;9.93;7.57;;;26.90;82.80;;;;;;4129106;28;20259;-75
2021/07/25 10:15:23;;;;;;;11.73;7.43;;;26.90;84.50;;;;;;4128305;28;20658;-76
2021/07/25 10:17:26;;;;;;;10.27;7.30;;;26.90;85.20;;;;;;4131183;28;20580;-77
2021/07/25 10:19:29;;;;;;;10.13;7.53;;;26.90;84.60;;;;;;4130376;28;20212;-75
2021/07/25 10:21:33;;;;;;;9.30;7.17;;;26.80;85.60;;;;;;4130245;28;20298;-77
2021/07/25 10:23:41;;;;;;;10.13;7.53;;;26.80;86.10;;;;;;4131269;28;20213;-77
2021/07/25 10:25:50;;;;;;;9.93;7.67;;;26.80;85.30;;;;;;4130735;28;20782;-77
2021/07/25 10:27:53;;;;;;;11.07;7.93;;;26.80;83.70;;;;;;4130757;28;20216;-77
2021/07/25 10:29:57;;;;;;;9.23;7.20;;;26.80;80.80;;;;;;4128987;28;20215;-75